Friday, August 28, 2015, 5:25 AM EDT
Back to Local

KMTP, Montauk Airport

Location: Montauk, NY, United States Lat: 41.067
Local Time: 5:25 AM EDT ( 9:25 GMT) Lon: -71.917
Time Zone: US/Eastern Elev: 6 ft

Show me the last for .
Show Coded

Time T Td Feel RH Dir Speed Gust Alt SLP Vis Weather Sky Remarks
2015-08-28 03:54 68 58 - 70 340° 7 - 30.11 30.11 0 None
2015-08-28 02:54 69 59 - 70 330° 6 - 30.11 30.11 0 None
2015-08-28 01:54 69 58 - 67 340° 7 - 30.11 30.11 0 6-hr Min Temp (2am): 69.1°F
6-hr Max Temp (2am): 75.0°F
2015-08-28 00:54 70 58 - 65 330° 9 - 30.11 30.11 0 24-hr Min Temp (1am): 69.1°F
24-hr Max Temp (1am): 80.1°F
2015-08-27 23:54 72 59 76 63 330° 8 - 30.11 30.11 0 None
2015-08-27 22:54 73 59 77 61 320° 8 - 30.09 30.09 0 None
2015-08-27 21:54 72 62 76 71 300° 3 - 30.09 30.08 0 None
2015-08-27 20:54 74 63 77 68 290° 5 - 30.07 30.07 0 None
2015-08-27 19:54 74 61 77 64 280° 5 - 30.05 30.05 0 6-hr Min Temp (8pm): 73.9°F
6-hr Max Temp (8pm): 80.1°F
2015-08-27 18:54 76 60 78 58 280° 6 - 30.04 30.04 0 None
2015-08-27 17:54 78 59 80 51 Variable 6 - 30.03 30.03 0 None
2015-08-27 16:54 79 59 80 50 280° 7 - 30.03 30.02 0 None
2015-08-27 15:54 78 56 79 46 260° 8 - 30.02 30.02 0 None
2015-08-27 14:54 79 56 80 45 260° 8 - 30.03 30.03 0 None
2015-08-27 13:54 78 56 79 46 240° 7 - 30.04 30.04 0 6-hr Min Temp (2pm): 70.0°F
6-hr Max Temp (2pm): 78.1°F
2015-08-27 12:54 77 58 79 51 250° 8 - 30.05 30.04 0 None
2015-08-27 11:54 76 58 78 53 280° 7 - 30.05 30.05 0 None
2015-08-27 10:54 75 57 77 53 310° 9 - 30.06 30.06 0 None
2015-08-27 09:54 73 57 77 57 Variable 6 - 30.05 30.05 0 None
2015-08-27 08:54 71 56 76 58 330° 8 - 30.04 30.04 0 None
2015-08-27 07:54 70 56 - 61 330° 7 - 30.04 30.03 0 6-hr Min Temp (8am): 69.1°F
6-hr Max Temp (8am): 73.0°F
2015-08-27 06:54 69 56 - 62 330° 8 - 30.02 30.01 0 None
2015-08-27 05:54 69 56 - 62 340° 6 - 30.00 30.00 0 None

Support USWX by starting your Amazon purchase here.